createdAt,value
2022-10-14T00:01:08.679Z,9.40
2022-10-14T00:03:54.824Z,9.30
2022-10-14T00:06:30.897Z,9.30
2022-10-14T00:09:04.610Z,9.30
2022-10-14T00:11:37.320Z,9.30
2022-10-14T00:14:11.773Z,9.30
2022-10-14T00:16:45.425Z,9.30
2022-10-14T00:19:18.816Z,9.20
2022-10-14T00:21:52.800Z,9.30
2022-10-14T00:24:24.267Z,9.20
2022-10-14T00:26:55.420Z,9.30
2022-10-14T00:29:26.842Z,9.30
2022-10-14T00:31:57.983Z,9.20
2022-10-14T00:34:30.708Z,9.20
2022-10-14T00:37:07.114Z,9.20
2022-10-14T00:39:38.885Z,9.10
2022-10-14T00:42:15.608Z,9.10
2022-10-14T00:45:10.948Z,9.10
2022-10-14T00:47:43.650Z,9.10
2022-10-14T00:50:17.190Z,9.10
2022-10-14T00:52:51.193Z,9.20
2022-10-14T00:55:22.951Z,9.20
2022-10-14T00:57:54.411Z,9.20
2022-10-14T01:00:26.295Z,9.20
2022-10-14T01:02:59.819Z,9.20
2022-10-14T01:05:39.436Z,9.20
2022-10-14T01:08:18.146Z,9.20
2022-10-14T01:10:57.914Z,9.20
2022-10-14T01:13:35.622Z,9.10
2022-10-14T01:16:16.507Z,9.10
2022-10-14T01:19:11.014Z,9.10
2022-10-14T01:21:45.886Z,9.00
2022-10-14T01:24:44.482Z,9.00
2022-10-14T01:27:45.834Z,9.00
2022-10-14T01:30:23.563Z,9.00
2022-10-14T01:33:12.479Z,9.00
2022-10-14T01:35:53.813Z,8.90
2022-10-14T01:38:30.028Z,9.00
2022-10-14T01:41:07.192Z,9.00
2022-10-14T01:43:40.953Z,9.00
2022-10-14T01:46:16.391Z,8.90
2022-10-14T01:48:52.174Z,8.90
2022-10-14T01:51:30.282Z,9.00
2022-10-14T01:54:05.710Z,8.90
2022-10-14T01:56:40.752Z,8.90
2022-10-14T01:59:15.537Z,8.90
2022-10-14T02:01:49.351Z,8.90
2022-10-14T02:04:22.923Z,9.00
2022-10-14T02:07:09.829Z,8.90
2022-10-14T02:09:48.980Z,8.90
2022-10-14T02:12:32.613Z,8.90
2022-10-14T02:15:16.120Z,8.90
2022-10-14T02:17:56.117Z,8.90
2022-10-14T02:20:32.425Z,8.90
2022-10-14T02:23:26.926Z,9.00
2022-10-14T02:26:02.561Z,9.00
2022-10-14T02:28:36.278Z,9.00
2022-10-14T02:31:11.055Z,9.00
2022-10-14T02:33:48.007Z,9.00
2022-10-14T02:36:22.982Z,9.00
2022-10-14T02:38:55.514Z,9.10
2022-10-14T02:41:30.360Z,9.10
2022-10-14T02:44:01.480Z,9.10
2022-10-14T02:46:33.018Z,9.10
2022-10-14T02:49:06.985Z,9.10
2022-10-14T02:51:38.402Z,9.10
2022-10-14T02:54:09.597Z,9.10
2022-10-14T02:56:41.314Z,9.10
2022-10-14T02:59:12.472Z,9.20
2022-10-14T03:01:44.172Z,9.30
2022-10-14T03:04:18.347Z,9.40
2022-10-14T03:06:49.905Z,9.50
2022-10-14T03:09:21.279Z,9.50
2022-10-14T03:11:54.374Z,9.60
2022-10-14T03:14:26.303Z,9.60
2022-10-14T03:16:58.288Z,9.50
2022-10-14T03:19:34.050Z,9.50
2022-10-14T03:22:06.384Z,9.40
2022-10-14T03:24:39.082Z,9.40
2022-10-14T03:27:10.710Z,9.40
2022-10-14T03:29:42.277Z,9.40
2022-10-14T03:32:21.133Z,9.40
2022-10-14T03:35:15.915Z,9.40
2022-10-14T03:37:50.087Z,9.40
2022-10-14T03:40:24.931Z,9.40
2022-10-14T03:42:56.440Z,9.30
2022-10-14T03:45:28.565Z,9.30
2022-10-14T03:48:01.337Z,9.40
2022-10-14T03:50:35.071Z,9.30
2022-10-14T03:53:06.781Z,9.30
2022-10-14T07:10:55.492Z,10.70
2022-10-14T07:13:28.026Z,10.80
2022-10-14T07:15:59.624Z,10.80
2022-10-14T07:18:31.169Z,10.90
2022-10-14T07:21:05.523Z,10.90
2022-10-14T07:23:37.030Z,10.90
2022-10-14T07:26:11.087Z,11.00
2022-10-14T07:28:42.704Z,11.10
2022-10-14T07:31:15.437Z,11.10
2022-10-14T07:33:47.004Z,11.10
2022-10-14T07:36:22.520Z,11.10
2022-10-14T07:38:54.645Z,11.10
2022-10-14T07:41:28.757Z,11.20
2022-10-14T07:44:06.677Z,11.20
2022-10-14T07:46:40.246Z,11.20
2022-10-14T07:49:15.603Z,11.30
2022-10-14T07:51:47.374Z,11.30
2022-10-14T07:54:25.396Z,11.30
2022-10-14T07:56:59.484Z,11.40
2022-10-14T07:59:31.046Z,11.50
2022-10-14T08:02:02.377Z,11.60
2022-10-14T08:04:34.179Z,11.80
2022-10-14T08:07:05.398Z,11.80
2022-10-14T08:09:38.721Z,11.90
2022-10-14T08:12:12.645Z,11.90
2022-10-14T08:14:44.077Z,11.80
2022-10-14T08:17:15.291Z,11.80
2022-10-14T08:19:46.960Z,11.80
2022-10-14T08:22:18.282Z,11.70
2022-10-14T08:24:50.302Z,11.80
2022-10-14T08:27:26.800Z,11.70
2022-10-14T08:29:58.300Z,11.80
2022-10-14T08:32:29.556Z,11.90
2022-10-14T08:35:01.089Z,12.00
2022-10-14T08:37:32.161Z,12.20
2022-10-14T08:40:03.739Z,12.20
2022-10-14T08:42:46.352Z,12.20
2022-10-14T08:45:23.718Z,12.20
2022-10-14T08:47:58.214Z,12.10
2022-10-14T08:50:36.418Z,12.20
2022-10-14T08:53:13.589Z,12.20
2022-10-14T08:55:47.656Z,12.30
2022-10-14T08:58:29.005Z,12.20
2022-10-14T09:01:05.510Z,12.30
2022-10-14T09:03:39.003Z,12.50
2022-10-14T09:06:16.025Z,12.50
2022-10-14T09:08:49.964Z,12.60
2022-10-14T09:11:24.341Z,12.60
2022-10-14T09:14:00.652Z,12.50
2022-10-14T09:16:35.899Z,12.70
2022-10-14T09:19:09.482Z,12.70
2022-10-14T09:21:57.772Z,12.90
2022-10-14T09:24:31.940Z,13.20
2022-10-14T09:27:06.974Z,13.40
2022-10-14T09:29:45.933Z,13.60
2022-10-14T09:32:22.587Z,13.70
2022-10-14T09:34:55.847Z,13.80
2022-10-14T09:37:32.578Z,13.80
2022-10-14T09:40:05.834Z,13.60
2022-10-14T09:42:47.232Z,13.70
2022-10-14T09:45:23.305Z,13.80
2022-10-14T09:47:57.428Z,14.10
2022-10-14T09:50:35.524Z,14.30
2022-10-14T09:53:11.235Z,14.40
2022-10-14T09:55:51.391Z,14.50
2022-10-14T09:58:30.081Z,14.70
2022-10-14T10:01:04.928Z,14.60
2022-10-14T10:03:39.958Z,14.40
2022-10-14T10:06:13.965Z,14.50
2022-10-14T10:08:58.603Z,14.30
2022-10-14T10:11:35.848Z,14.40
2022-10-14T10:14:20.429Z,14.30
2022-10-14T10:17:14.193Z,14.60
2022-10-14T10:19:49.084Z,14.80
2022-10-14T10:22:27.380Z,14.90
2022-10-14T10:25:23.581Z,15.00
2022-10-14T10:27:55.087Z,15.00
2022-10-14T10:30:28.664Z,14.90
2022-10-14T10:33:24.048Z,14.60
2022-10-14T10:36:03.949Z,14.70
2022-10-14T10:38:37.698Z,14.90
2022-10-14T10:41:22.019Z,15.20
2022-10-14T10:44:15.853Z,15.60
2022-10-14T10:47:04.444Z,15.60
2022-10-14T10:50:03.712Z,15.70
2022-10-14T10:52:46.223Z,15.80
2022-10-14T10:55:29.151Z,15.60
2022-10-14T10:58:13.447Z,15.70
2022-10-14T11:00:51.155Z,15.90
2022-10-14T11:03:46.944Z,16.20
2022-10-14T11:06:40.493Z,15.80
2022-10-14T11:09:34.146Z,15.70
2022-10-14T11:12:16.514Z,15.70
2022-10-14T11:15:24.034Z,15.60
2022-10-14T11:18:01.688Z,15.50
2022-10-14T11:20:42.426Z,15.40
2022-10-14T11:23:42.288Z,15.50
2022-10-14T11:26:24.262Z,15.60
2022-10-14T11:29:05.446Z,15.40
2022-10-14T11:31:51.371Z,15.30
2022-10-14T11:34:44.858Z,15.10
2022-10-14T11:37:28.862Z,15.20
2022-10-14T11:40:10.385Z,15.30
2022-10-14T11:42:54.445Z,15.30
2022-10-14T11:45:49.508Z,15.20
2022-10-14T11:48:30.296Z,15.10
2022-10-14T11:51:10.391Z,14.90
2022-10-14T11:53:58.598Z,15.00
2022-10-14T11:56:40.548Z,15.10
2022-10-14T12:00:03.240Z,15.00
2022-10-14T12:02:49.661Z,15.30
2022-10-14T12:05:26.923Z,15.70
2022-10-14T12:08:07.908Z,15.70
2022-10-14T12:10:43.352Z,15.70
2022-10-14T12:13:27.162Z,15.80
2022-10-14T12:15:58.876Z,15.80
2022-10-14T12:18:33.161Z,15.90
2022-10-14T12:21:11.805Z,15.90
2022-10-14T12:23:46.578Z,15.90
2022-10-14T12:26:30.290Z,15.80
2022-10-14T12:29:07.554Z,15.80
2022-10-14T12:31:41.457Z,15.70
2022-10-14T12:34:35.088Z,15.50
2022-10-14T12:37:51.782Z,15.50
2022-10-14T12:40:31.137Z,15.30
2022-10-14T12:43:19.981Z,15.40
2022-10-14T12:46:02.826Z,15.30
2022-10-14T12:48:37.164Z,15.10
2022-10-14T12:51:17.378Z,15.30
2022-10-14T12:54:01.549Z,15.40
2022-10-14T12:56:36.505Z,15.40
2022-10-14T12:59:10.580Z,15.50
2022-10-14T13:01:46.971Z,15.70
2022-10-14T13:04:21.060Z,15.60
2022-10-14T13:07:39.803Z,15.60
2022-10-14T13:10:52.596Z,15.50
2022-10-14T13:14:01.219Z,15.40
2022-10-14T13:17:00.367Z,15.30
2022-10-14T13:19:49.416Z,15.40
2022-10-14T13:22:42.197Z,15.40
2022-10-14T13:25:24.263Z,15.30
2022-10-14T13:28:01.450Z,15.20
2022-10-14T13:30:48.148Z,15.30
2022-10-14T13:33:28.269Z,15.40
2022-10-14T13:36:06.811Z,15.40
2022-10-14T13:38:39.651Z,15.30
2022-10-14T13:41:30.790Z,15.30
2022-10-14T13:44:03.550Z,15.40
2022-10-14T13:46:39.642Z,15.60
2022-10-14T13:49:18.543Z,15.50
2022-10-14T13:51:53.938Z,15.50
2022-10-14T13:54:26.902Z,15.50
2022-10-14T14:02:51.842Z,15.40
2022-10-14T14:05:35.529Z,15.50
2022-10-14T14:08:37.184Z,15.30
2022-10-14T14:11:16.059Z,15.30
2022-10-14T14:13:58.866Z,15.40
2022-10-14T14:16:36.787Z,15.50
2022-10-14T14:19:09.908Z,15.70
2022-10-14T14:21:44.642Z,15.60
2022-10-14T14:24:26.350Z,15.60
2022-10-14T14:26:59.125Z,15.40
2022-10-14T14:29:31.956Z,15.30
2022-10-14T14:32:08.437Z,15.20
2022-10-14T14:34:42.160Z,15.20
2022-10-14T14:37:52.929Z,15.20
2022-10-14T14:40:26.729Z,15.20
2022-10-14T14:43:02.413Z,15.10
2022-10-14T14:45:36.859Z,15.20
2022-10-14T14:48:10.617Z,15.10
2022-10-14T14:50:44.324Z,15.10
2022-10-14T14:53:22.628Z,14.90
2022-10-14T14:56:10.382Z,14.90
2022-10-14T14:58:53.032Z,14.90
2022-10-14T15:01:28.143Z,15.00
2022-10-14T15:04:13.136Z,15.00
2022-10-14T15:06:52.200Z,15.00
2022-10-14T15:09:38.575Z,14.90
2022-10-14T15:12:16.534Z,14.80
2022-10-14T15:14:50.188Z,14.70
2022-10-14T15:17:30.411Z,14.60
2022-10-14T15:20:24.014Z,14.60
2022-10-14T15:22:55.278Z,14.50
2022-10-14T15:25:36.390Z,14.50
2022-10-14T15:28:07.791Z,14.40
2022-10-14T15:30:54.089Z,14.40
2022-10-14T15:33:27.351Z,14.30
2022-10-14T15:36:02.094Z,14.20
2022-10-14T15:38:33.868Z,14.30
2022-10-14T15:41:08.517Z,14.30
2022-10-14T15:43:40.029Z,14.20
2022-10-14T15:46:28.772Z,14.20
2022-10-14T15:49:01.677Z,14.10
2022-10-14T15:51:34.406Z,14.10
2022-10-14T15:54:06.503Z,14.00
2022-10-14T15:56:40.702Z,14.00
2022-10-14T15:59:12.026Z,13.90
2022-10-14T16:01:48.006Z,13.90
2022-10-14T16:04:24.388Z,13.90
2022-10-14T16:06:57.768Z,13.80
2022-10-14T16:09:29.781Z,13.80
2022-10-14T16:12:03.442Z,13.70
2022-10-14T16:14:34.549Z,13.70
2022-10-14T16:17:06.769Z,13.70
2022-10-14T16:19:38.421Z,13.60
2022-10-14T16:22:12.092Z,13.60
2022-10-14T16:24:43.948Z,13.50
2022-10-14T16:27:19.115Z,13.50
2022-10-14T16:29:50.358Z,13.40
2022-10-14T16:32:21.799Z,13.40
2022-10-14T16:34:54.450Z,13.30
2022-10-14T16:37:25.886Z,13.30
2022-10-14T16:39:57.127Z,13.20
2022-10-14T16:42:31.263Z,13.20
2022-10-14T16:45:02.392Z,13.20
2022-10-14T16:47:34.459Z,13.20
2022-10-14T16:50:06.827Z,13.10
2022-10-14T16:52:51.610Z,13.10
2022-10-14T16:55:23.796Z,13.10
2022-10-14T16:57:57.958Z,13.10
2022-10-14T17:00:29.962Z,13.10
2022-10-14T17:03:02.331Z,13.10
2022-10-14T17:05:53.903Z,13.10
2022-10-14T17:08:25.785Z,13.10
2022-10-14T17:11:01.135Z,13.10
2022-10-14T17:13:35.492Z,13.10
2022-10-14T17:16:08.767Z,13.10
2022-10-14T17:18:42.523Z,13.10
2022-10-14T17:21:18.763Z,13.10
2022-10-14T17:23:51.114Z,13.10
2022-10-14T17:26:22.797Z,13.00
2022-10-14T17:28:59.653Z,13.00
2022-10-14T17:31:31.817Z,13.00
2022-10-14T17:34:03.328Z,13.00
2022-10-14T17:36:34.687Z,13.00
2022-10-14T17:39:06.948Z,13.00
2022-10-14T17:41:38.133Z,13.00
2022-10-14T17:44:13.105Z,13.00
2022-10-14T17:46:44.201Z,13.00
2022-10-14T17:49:16.176Z,13.00
2022-10-14T17:51:49.370Z,12.90
2022-10-14T17:54:21.171Z,13.00
2022-10-14T17:56:52.418Z,13.00
2022-10-14T17:59:26.707Z,12.90
2022-10-14T18:02:02.764Z,12.90
2022-10-14T18:04:35.649Z,12.90
2022-10-14T18:07:06.910Z,12.90
2022-10-14T18:09:38.634Z,12.90
2022-10-14T18:12:10.520Z,12.90
2022-10-14T18:14:45.227Z,12.90
2022-10-14T18:17:16.648Z,12.80
2022-10-14T18:19:52.044Z,12.80
2022-10-14T18:22:23.911Z,12.80
2022-10-14T18:24:56.107Z,12.80
2022-10-14T18:27:28.142Z,12.80
2022-10-14T18:30:02.623Z,12.80
2022-10-14T18:32:34.201Z,12.70
2022-10-14T18:35:06.441Z,12.70
2022-10-14T18:37:38.024Z,12.70
2022-10-14T18:40:11.888Z,12.70
2022-10-14T18:42:43.186Z,12.60
2022-10-14T18:45:17.447Z,12.60
2022-10-14T18:47:50.075Z,12.50
2022-10-14T18:50:21.712Z,12.40
2022-10-14T18:52:53.219Z,12.40
2022-10-14T18:55:25.631Z,12.40
2022-10-14T18:57:57.272Z,12.40
2022-10-14T19:00:31.465Z,12.20
2022-10-14T19:03:02.771Z,12.20
2022-10-14T19:05:38.890Z,12.10
2022-10-14T19:08:10.378Z,12.00
2022-10-14T19:10:42.040Z,11.90
2022-10-14T19:13:13.624Z,11.80
2022-10-14T19:15:54.054Z,11.80
2022-10-14T19:18:25.417Z,11.60
2022-10-14T19:20:59.332Z,11.50
2022-10-14T19:23:30.853Z,11.40
2022-10-14T19:26:02.484Z,11.40
